Time;durP1;ratioP1;P1;durP2;ratioP2;P2;SDS_P1;SDS_P2;PMS_P1;PMS_P2;Temp;Humidity;BMP_temperature;BMP_pressure;BME280_temperature;BME280_humidity;BME280_pressure;Samples;Min_cycle;Max_cycle;Signal;HPM_P1;HPM_P2
2021/03/15 00:00:55;;;;;;;0.70;0.60;;;22.90;44.80;;;;;;5027093;28;20099;-61
2021/03/15 00:03:21;;;;;;;1.38;0.60;;;22.90;44.80;;;;;;5029345;28;20119;-62
2021/03/15 00:05:47;;;;;;;1.33;0.50;;;22.80;44.70;;;;;;5027045;28;20047;-60
2021/03/15 00:08:12;;;;;;;0.63;0.50;;;22.80;44.70;;;;;;5027172;28;20034;-61
2021/03/15 00:10:38;;;;;;;1.83;0.77;;;22.80;44.70;;;;;;5027666;28;20495;-61
2021/03/15 00:13:05;;;;;;;0.98;0.50;;;22.80;44.70;;;;;;5028403;28;20090;-61
2021/03/15 00:15:30;;;;;;;1.83;0.60;;;22.80;44.70;;;;;;5028247;28;20025;-60
2021/03/15 00:17:56;;;;;;;1.48;0.60;;;22.80;44.80;;;;;;5026929;28;20687;-61
2021/03/15 00:20:23;;;;;;;0.90;0.50;;;22.80;44.70;;;;;;5026910;28;20029;-61
2021/03/15 00:22:49;;;;;;;1.13;0.40;;;22.80;44.70;;;;;;5028573;28;20056;-61
2021/03/15 00:25:16;;;;;;;0.45;0.45;;;22.80;44.70;;;;;;5027762;28;20045;-61
2021/03/15 00:27:42;;;;;;;1.42;0.70;;;22.80;44.70;;;;;;5028679;28;20021;-60
2021/03/15 00:30:12;;;;;;;0.90;0.57;;;22.80;44.70;;;;;;5025286;28;20672;-62
2021/03/15 00:32:38;;;;;;;0.85;0.50;;;22.70;44.70;;;;;;5029135;28;20104;-59
2021/03/15 00:35:05;;;;;;;0.73;0.40;;;22.70;45.20;;;;;;5024445;28;20120;-61
2021/03/15 00:37:31;;;;;;;1.05;0.60;;;22.70;44.70;;;;;;5027734;28;20120;-62
2021/03/15 00:39:57;;;;;;;1.23;0.50;;;22.80;44.70;;;;;;5042822;28;20128;-62
2021/03/15 00:42:22;;;;;;;1.27;0.50;;;22.70;45.30;;;;;;5028121;28;20033;-60
2021/03/15 00:44:48;;;;;;;1.50;0.43;;;22.70;44.70;;;;;;5027699;28;20040;-61
2021/03/15 00:47:14;;;;;;;1.23;0.60;;;22.70;44.70;;;;;;5025946;28;20033;-61
2021/03/15 00:49:40;;;;;;;1.55;0.50;;;22.70;44.70;;;;;;5032747;28;20043;-60
2021/03/15 00:52:05;;;;;;;0.82;0.50;;;22.70;44.70;;;;;;5026963;28;20049;-61
2021/03/15 00:54:31;;;;;;;0.82;0.60;;;22.70;44.70;;;;;;5027248;28;20029;-63
2021/03/15 00:56:57;;;;;;;0.95;0.60;;;22.70;44.70;;;;;;5028198;28;20037;-62
2021/03/15 00:59:22;;;;;;;0.93;0.40;;;22.70;44.70;;;;;;5028382;28;20147;-63
2021/03/15 01:01:48;;;;;;;1.55;0.50;;;22.70;44.80;;;;;;5024483;28;20352;-62
2021/03/15 01:04:15;;;;;;;2.03;0.40;;;22.70;44.70;;;;;;5027356;28;20029;-60
2021/03/15 01:06:42;;;;;;;1.05;0.57;;;22.60;44.70;;;;;;5027609;28;20147;-60
2021/03/15 01:09:08;;;;;;;2.22;0.60;;;22.60;44.70;;;;;;5027290;28;20055;-62
2021/03/15 01:11:34;;;;;;;0.50;0.40;;;22.60;44.70;;;;;;5026057;28;20159;-61
2021/03/15 01:14:00;;;;;;;0.77;0.50;;;22.60;45.20;;;;;;5022718;28;20101;-61
2021/03/15 01:16:25;;;;;;;0.40;0.40;;;22.60;44.70;;;;;;5027284;28;20056;-60
2021/03/15 01:18:51;;;;;;;0.90;0.57;;;22.60;44.70;;;;;;5027385;28;20069;-61
2021/03/15 01:21:17;;;;;;;0.90;0.40;;;22.60;44.70;;;;;;5025348;28;20033;-61
2021/03/15 01:23:42;;;;;;;1.10;0.47;;;22.60;44.70;;;;;;5028032;28;20099;-62
2021/03/15 01:26:08;;;;;;;1.17;0.40;;;22.60;44.70;;;;;;5026817;28;20496;-62
2021/03/15 01:28:34;;;;;;;0.50;0.50;;;22.60;44.70;;;;;;5028673;28;20036;-59
2021/03/15 01:31:00;;;;;;;0.65;0.50;;;22.60;44.70;;;;;;5025597;28;20042;-60
2021/03/15 01:33:26;;;;;;;0.77;0.43;;;22.60;44.70;;;;;;5016076;28;20684;-60
2021/03/15 01:35:52;;;;;;;0.63;0.50;;;22.50;44.60;;;;;;5014383;28;20049;-61
2021/03/15 01:38:18;;;;;;;0.82;0.50;;;22.50;45.20;;;;;;5027265;28;20044;-62
2021/03/15 01:40:44;;;;;;;0.90;0.47;;;22.60;44.70;;;;;;5027039;28;20532;-60
2021/03/15 01:43:10;;;;;;;0.80;0.50;;;22.50;44.70;;;;;;5016600;28;20030;-60
2021/03/15 01:45:36;;;;;;;0.73;0.40;;;22.50;44.60;;;;;;5022991;28;20095;-60
2021/03/15 01:48:04;;;;;;;0.77;0.40;;;22.50;44.60;;;;;;5027339;28;20038;-61
2021/03/15 01:50:31;;;;;;;0.50;0.40;;;22.50;44.70;;;;;;5024644;28;20029;-60
2021/03/15 01:52:56;;;;;;;0.50;0.50;;;22.50;44.60;;;;;;5025884;28;20136;-61
2021/03/15 01:55:23;;;;;;;0.77;0.40;;;22.50;44.60;;;;;;5020634;28;20137;-61
2021/03/15 01:57:49;;;;;;;0.98;0.50;;;22.50;44.70;;;;;;5025129;28;20044;-61
2021/03/15 02:00:17;;;;;;;0.70;0.43;;;22.50;44.60;;;;;;5014161;28;20040;-60
2021/03/15 02:02:54;;;;;;;0.75;0.50;;;22.50;44.60;;;;;;5026512;28;20036;-61
2021/03/15 02:05:20;;;;;;;0.70;0.50;;;22.50;44.70;;;;;;5024128;28;20045;-60
2021/03/15 02:07:45;;;;;;;0.75;0.50;;;22.50;44.60;;;;;;5021397;28;20033;-60
2021/03/15 02:10:12;;;;;;;1.52;0.60;;;22.40;44.60;;;;;;5026860;28;20033;-61
2021/03/15 02:13:03;;;;;;;0.85;0.60;;;22.40;44.60;;;;;;5026430;28;20021;-62
2021/03/15 02:15:56;;;;;;;0.52;0.50;;;22.40;44.60;;;;;;5024929;28;20453;-62
2021/03/15 02:18:33;;;;;;;0.50;0.35;;;22.40;44.60;;;;;;5024853;28;20025;-61
2021/03/15 02:21:23;;;;;;;0.95;0.50;;;22.40;44.60;;;;;;5024693;28;20060;-61
2021/03/15 02:24:36;;;;;;;0.82;0.47;;;22.40;44.60;;;;;;5025774;28;20029;-62
2021/03/15 02:27:29;;;;;;;0.40;0.40;;;22.40;44.60;;;;;;4984335;28;20034;-61
2021/03/15 02:30:17;;;;;;;0.43;0.43;;;22.40;44.60;;;;;;5004126;28;20571;-62
2021/03/15 02:33:20;;;;;;;1.02;0.60;;;22.40;44.60;;;;;;5016043;28;20510;-59
2021/03/15 02:35:47;;;;;;;0.73;0.40;;;22.40;44.60;;;;;;5023784;28;20033;-61
2021/03/15 02:38:15;;;;;;;0.57;0.50;;;22.40;44.60;;;;;;5026309;28;20079;-63
2021/03/15 02:40:58;;;;;;;0.75;0.60;;;22.40;44.60;;;;;;5025585;28;20059;-62
2021/03/15 02:43:29;;;;;;;0.70;0.47;;;22.40;44.60;;;;;;5025978;28;20116;-60
2021/03/15 02:46:07;;;;;;;0.85;0.50;;;22.40;44.60;;;;;;5024672;28;20107;-60
2021/03/15 02:48:35;;;;;;;0.85;0.50;;;22.30;44.60;;;;;;5025237;28;20090;-62
2021/03/15 02:51:03;;;;;;;0.52;0.50;;;22.30;44.60;;;;;;5023009;28;20043;-61
2021/03/15 02:53:30;;;;;;;0.57;0.43;;;22.30;44.60;;;;;;5026003;28;20762;-60
2021/03/15 02:56:19;;;;;;;0.50;0.40;;;22.30;44.60;;;;;;5024212;28;20476;-59
2021/03/15 02:58:46;;;;;;;0.60;0.40;;;22.30;44.60;;;;;;5023186;28;20030;-60
2021/03/15 03:01:16;;;;;;;0.77;0.55;;;22.30;44.60;;;;;;5022459;28;20698;-60
2021/03/15 03:03:42;;;;;;;0.50;0.40;;;22.30;44.60;;;;;;5025463;28;20026;-61
2021/03/15 03:06:10;;;;;;;0.40;0.40;;;22.30;44.60;;;;;;5024569;28;20098;-61
2021/03/15 03:08:37;;;;;;;0.40;0.40;;;22.30;44.60;;;;;;5025272;28;20083;-61
2021/03/15 03:11:03;;;;;;;0.40;0.40;;;22.30;44.60;;;;;;5024822;28;20025;-60
2021/03/15 03:13:32;;;;;;;0.50;0.50;;;22.30;44.60;;;;;;5026150;28;20030;-61
2021/03/15 03:15:58;;;;;;;0.47;0.40;;;22.30;44.60;;;;;;5023258;28;20388;-63
2021/03/15 03:18:25;;;;;;;0.60;0.40;;;22.30;44.60;;;;;;5025569;28;20030;-62
2021/03/15 03:20:56;;;;;;;0.68;0.40;;;22.30;44.60;;;;;;5012343;28;20136;-61
2021/03/15 03:23:26;;;;;;;0.43;0.40;;;22.30;44.60;;;;;;5030296;28;20034;-62
2021/03/15 03:25:54;;;;;;;;;;;22.20;44.50;;;;;;5024758;28;20674;-61
2021/03/15 03:28:22;;;;;;;0.45;0.40;;;22.30;44.70;;;;;;5025953;28;19913;-60
2021/03/15 03:30:48;;;;;;;0.40;0.30;;;22.30;44.60;;;;;;5020511;28;20480;-60
2021/03/15 03:33:14;;;;;;;0.57;0.40;;;22.20;44.50;;;;;;5025899;28;20045;-63
2021/03/15 03:35:42;;;;;;;0.50;0.40;;;22.20;44.50;;;;;;5017769;28;20052;-62
2021/03/15 03:38:08;;;;;;;0.55;0.40;;;22.30;44.60;;;;;;5024974;28;20033;-62
2021/03/15 03:40:34;;;;;;;0.75;0.50;;;22.20;44.50;;;;;;5026571;28;20095;-64
2021/03/15 03:42:59;;;;;;;0.70;0.55;;;22.20;44.50;;;;;;5033687;28;20099;-63
2021/03/15 03:45:25;;;;;;;0.50;0.40;;;22.20;44.50;;;;;;5023556;28;20037;-61
2021/03/15 03:47:51;;;;;;;0.55;0.47;;;22.20;44.50;;;;;;5025403;28;20033;-62
2021/03/15 03:50:28;;;;;;;0.40;0.30;;;22.20;44.50;;;;;;5023831;28;20045;-63
2021/03/15 03:52:57;;;;;;;0.32;0.32;;;22.20;44.60;;;;;;5023891;28;20021;-62
2021/03/15 03:55:31;;;;;;;0.82;0.50;;;22.20;44.50;;;;;;5023967;28;20080;-61
2021/03/15 03:57:58;;;;;;;0.38;0.30;;;22.20;44.50;;;;;;5024635;28;20033;-62
2021/03/15 04:00:24;;;;;;;0.30;0.30;;;22.20;44.50;;;;;;5022333;28;20037;-62
2021/03/15 04:02:55;;;;;;;0.63;0.30;;;22.20;44.50;;;;;;5013745;28;20620;-62
2021/03/15 04:05:31;;;;;;;0.55;0.30;;;22.20;44.50;;;;;;5021619;28;20071;-63
2021/03/15 04:08:02;;;;;;;0.60;0.40;;;22.20;44.50;;;;;;5024321;28;20087;-64
2021/03/15 04:10:30;;;;;;;0.40;0.40;;;22.20;44.50;;;;;;5024571;28;20026;-62
2021/03/15 04:13:03;;;;;;;0.35;0.25;;;22.20;44.50;;;;;;5025505;28;20025;-62
2021/03/15 04:15:29;;;;;;;0.30;0.30;;;22.20;44.50;;;;;;5023789;28;20084;-62
2021/03/15 04:17:56;;;;;;;0.93;0.40;;;22.20;44.50;;;;;;5025315;28;20043;-63
2021/03/15 04:20:29;;;;;;;0.60;0.40;;;22.20;44.50;;;;;;5005831;28;20038;-61
2021/03/15 04:22:58;;;;;;;0.60;0.40;;;22.20;44.50;;;;;;5017419;28;20029;-61
2021/03/15 04:25:27;;;;;;;0.30;0.30;;;22.20;44.50;;;;;;5023804;28;20056;-62
2021/03/15 04:27:55;;;;;;;0.70;0.40;;;22.20;44.50;;;;;;5025488;28;20037;-61
2021/03/15 04:30:23;;;;;;;0.57;0.47;;;22.20;44.50;;;;;;5034283;28;20029;-64
2021/03/15 04:32:53;;;;;;;0.68;0.40;;;22.20;44.50;;;;;;5027429;28;20026;-62
2021/03/15 04:35:29;;;;;;;0.50;0.40;;;22.20;44.50;;;;;;5026395;28;20119;-60
2021/03/15 04:37:57;;;;;;;0.38;0.38;;;22.10;44.50;;;;;;5028447;28;20157;-62
2021/03/15 04:40:24;;;;;;;0.40;0.40;;;22.10;44.40;;;;;;5042354;28;20033;-63
2021/03/15 04:42:51;;;;;;;0.30;0.30;;;22.10;44.50;;;;;;5028775;28;20040;-62
2021/03/15 04:45:17;;;;;;;0.50;0.40;;;22.10;44.40;;;;;;5025178;28;20040;-64
2021/03/15 04:47:44;;;;;;;0.50;0.45;;;22.10;44.40;;;;;;5027997;28;20054;-64
2021/03/15 04:50:12;;;;;;;0.40;0.40;;;22.10;44.50;;;;;;5027694;28;20057;-61
2021/03/15 04:52:40;;;;;;;0.93;0.60;;;22.10;44.40;;;;;;5027197;28;20052;-62
2021/03/15 04:55:09;;;;;;;0.55;0.40;;;22.10;44.50;;;;;;5026941;28;20049;-62
2021/03/15 04:57:36;;;;;;;0.40;0.40;;;22.10;44.50;;;;;;5026360;28;20033;-63
2021/03/15 05:00:06;;;;;;;0.57;0.40;;;22.10;44.50;;;;;;5024854;28;20307;-63
2021/03/15 05:02:33;;;;;;;0.70;0.52;;;22.10;44.50;;;;;;5027873;28;20124;-63
2021/03/15 05:05:00;;;;;;;0.40;0.40;;;22.10;44.50;;;;;;5027970;28;20132;-61
2021/03/15 05:07:28;;;;;;;0.47;0.47;;;22.10;44.50;;;;;;5020217;28;20075;-63
2021/03/15 05:09:55;;;;;;;0.50;0.50;;;22.10;44.50;;;;;;5025166;28;20049;-62
2021/03/15 05:12:22;;;;;;;0.30;0.30;;;22.10;44.50;;;;;;5026667;28;20021;-62
2021/03/15 05:14:49;;;;;;;0.40;0.40;;;22.10;44.50;;;;;;5027087;28;20029;-62
2021/03/15 05:17:15;;;;;;;0.63;0.40;;;22.10;44.50;;;;;;5042289;28;20030;-61
2021/03/15 05:19:42;;;;;;;0.95;0.57;;;22.10;44.50;;;;;;5023740;28;20041;-63
2021/03/15 05:22:08;;;;;;;0.43;0.40;;;22.10;44.60;;;;;;5036374;28;20064;-63
2021/03/15 05:24:37;;;;;;;0.30;0.30;;;22.10;44.50;;;;;;5026455;28;20368;-63
2021/03/15 05:27:04;;;;;;;0.30;0.30;;;22.10;44.50;;;;;;5026083;28;20044;-63
2021/03/15 05:29:32;;;;;;;0.30;0.30;;;22.10;44.60;;;;;;5026742;28;20315;-61
2021/03/15 05:31:59;;;;;;;0.32;0.32;;;22.10;44.60;;;;;;5025901;28;20099;-62
2021/03/15 05:34:26;;;;;;;0.65;0.40;;;22.10;44.60;;;;;;5024104;28;20052;-61
2021/03/15 05:36:52;;;;;;;0.50;0.40;;;22.10;44.60;;;;;;5026605;28;20383;-61
2021/03/15 05:39:18;;;;;;;0.63;0.32;;;22.00;44.60;;;;;;5025849;28;20108;-62
2021/03/15 05:42:09;;;;;;;0.40;0.40;;;22.10;44.60;;;;;;5019757;28;20121;-62
2021/03/15 05:45:07;;;;;;;0.43;0.35;;;22.10;44.70;;;;;;5026801;28;20040;-63
2021/03/15 05:48:15;;;;;;;0.73;0.45;;;22.10;44.70;;;;;;5005345;28;20185;-63
2021/03/15 05:51:20;;;;;;;0.40;0.40;;;22.10;44.70;;;;;;5018638;28;20156;-61
2021/03/15 05:53:48;;;;;;;0.57;0.47;;;22.00;44.70;;;;;;5026042;28;20276;-60
2021/03/15 05:56:23;;;;;;;0.30;0.30;;;22.10;44.70;;;;;;5023175;28;20392;-61
2021/03/15 05:59:17;;;;;;;2.13;0.63;;;22.00;44.70;;;;;;5014063;28;20801;-59
2021/03/15 06:02:04;;;;;;;1.05;0.47;;;22.00;44.70;;;;;;5021726;28;20037;-60
2021/03/15 06:04:43;;;;;;;0.60;0.50;;;22.00;44.70;;;;;;5025520;28;20029;-59
2021/03/15 06:07:11;;;;;;;;;;;22.00;44.70;;;;;;5025705;28;20370;-60
2021/03/15 06:09:56;;;;;;;0.40;0.40;;;22.00;44.80;;;;;;5025855;28;19913;-59
2021/03/15 06:12:25;;;;;;;0.60;0.40;;;22.00;44.70;;;;;;5028115;28;20037;-60
2021/03/15 06:14:52;;;;;;;;;;;22.00;44.70;;;;;;5026918;28;20022;-61
2021/03/15 06:17:19;;;;;;;0.60;0.40;;;22.00;44.70;;;;;;5022687;28;19913;-59
2021/03/15 06:19:47;;;;;;;0.63;0.50;;;22.00;44.70;;;;;;5023080;28;20064;-59
2021/03/15 06:22:14;;;;;;;0.52;0.40;;;22.00;44.70;;;;;;5025089;28;20033;-59
2021/03/15 06:24:40;;;;;;;0.43;0.32;;;22.00;44.70;;;;;;5014410;28;20052;-58
2021/03/15 06:27:07;;;;;;;0.82;0.47;;;22.00;44.70;;;;;;5021729;28;20528;-59
2021/03/15 06:29:34;;;;;;;0.68;0.50;;;22.00;44.80;;;;;;5026484;28;20035;-60
2021/03/15 06:31:59;;;;;;;0.55;0.55;;;22.00;44.80;;;;;;5023623;28;20381;-60
2021/03/15 06:34:28;;;;;;;0.90;0.50;;;22.00;44.80;;;;;;5020575;28;20032;-60
2021/03/15 06:36:55;;;;;;;1.02;0.52;;;22.00;44.80;;;;;;5023931;28;20491;-60
2021/03/15 06:39:22;;;;;;;0.60;0.40;;;22.00;44.80;;;;;;5023874;28;20043;-66
2021/03/15 06:41:52;;;;;;;0.88;0.50;;;22.00;44.80;;;;;;5020905;28;20045;-67
2021/03/15 06:44:17;;;;;;;;;;;22.00;45.70;;;;;;5027342;28;20025;-67
2021/03/15 06:46:43;;;;;;;1.98;0.50;;;22.10;45.10;;;;;;5033391;28;19923;-66
2021/03/15 06:49:09;;;;;;;1.38;0.50;;;22.30;45.20;;;;;;5025759;28;20094;-66
2021/03/15 06:51:35;;;;;;;1.98;0.50;;;22.40;44.90;;;;;;5025133;28;20141;-67
2021/03/15 06:54:01;;;;;;;1.67;0.70;;;22.50;44.60;;;;;;5024387;28;20018;-69
2021/03/15 06:56:26;;;;;;;1.25;0.70;;;22.60;44.30;;;;;;5029589;28;20241;-69
2021/03/15 06:58:54;;;;;;;1.45;0.60;;;22.80;44.20;;;;;;5028711;28;20083;-66
2021/03/15 07:01:25;;;;;;;1.00;0.50;;;22.80;44.00;;;;;;5018147;28;20045;-67
2021/03/15 07:04:05;;;;;;;2.67;0.77;;;22.90;44.00;;;;;;5025273;28;20143;-66
2021/03/15 07:06:39;;;;;;;0.57;0.50;;;23.00;43.70;;;;;;5034823;28;20036;-66
2021/03/15 07:09:22;;;;;;;1.35;0.85;;;23.10;43.50;;;;;;5042581;28;20099;-66
2021/03/15 07:12:01;;;;;;;1.27;0.60;;;23.30;43.30;;;;;;5024467;28;20052;-69
2021/03/15 07:14:27;;;;;;;1.52;0.57;;;23.30;43.10;;;;;;5027016;28;20036;-69
2021/03/15 07:17:00;;;;;;;1.10;0.60;;;23.40;43.10;;;;;;5026638;28;20333;-67
2021/03/15 07:19:26;;;;;;;0.93;0.50;;;23.50;42.90;;;;;;5027858;28;20083;-68
2021/03/15 07:21:52;;;;;;;0.68;0.40;;;23.50;42.70;;;;;;5021426;28;20037;-71
2021/03/15 07:24:18;;;;;;;0.43;0.40;;;23.50;42.80;;;;;;5028171;28;20025;-66
2021/03/15 07:26:45;;;;;;;0.70;0.50;;;23.40;42.90;;;;;;5028532;28;20044;-69
2021/03/15 07:29:16;;;;;;;1.52;0.57;;;23.40;43.00;;;;;;5028708;28;20074;-67
2021/03/15 07:31:49;;;;;;;0.40;0.40;;;23.40;43.10;;;;;;5026638;28;20080;-69
2021/03/15 07:34:18;;;;;;;1.08;0.50;;;23.40;43.10;;;;;;5026404;28;20025;-63
2021/03/15 07:36:53;;;;;;;0.98;0.60;;;23.40;43.10;;;;;;5028249;28;20032;-65
2021/03/15 07:39:20;;;;;;;1.05;0.50;;;23.40;43.20;;;;;;5020096;28;20055;-66
2021/03/15 07:41:49;;;;;;;1.73;0.60;;;23.50;43.00;;;;;;5028028;28;20033;-69
2021/03/15 07:44:16;;;;;;;1.05;0.50;;;23.50;42.90;;;;;;5026828;28;20436;-65
2021/03/15 07:46:42;;;;;;;0.50;0.40;;;23.50;42.90;;;;;;5023842;28;20268;-70
2021/03/15 07:49:37;;;;;;;0.40;0.40;;;23.50;43.00;;;;;;5026577;28;20385;-66
2021/03/15 07:52:11;;;;;;;0.88;0.47;;;23.50;43.00;;;;;;5027951;28;20041;-66
2021/03/15 07:54:38;;;;;;;0.47;0.40;;;23.40;43.50;;;;;;5018967;28;20387;-70
2021/03/15 07:57:13;;;;;;;0.63;0.50;;;23.50;43.00;;;;;;5027884;28;20029;-70
2021/03/15 07:59:40;;;;;;;1.05;0.40;;;23.60;42.80;;;;;;5018437;28;20087;-70
2021/03/15 08:02:12;;;;;;;0.40;0.40;;;23.60;42.70;;;;;;5024940;28;20033;-73
2021/03/15 08:04:37;;;;;;;0.57;0.40;;;23.50;42.80;;;;;;5029957;28;20112;-71
2021/03/15 08:07:04;;;;;;;0.40;0.40;;;23.50;42.70;;;;;;5038461;28;20025;-70
2021/03/15 08:09:30;;;;;;;0.60;0.50;;;23.50;42.70;;;;;;5030670;28;20029;-69
2021/03/15 08:11:57;;;;;;;0.88;0.40;;;23.50;42.80;;;;;;5031663;28;20035;-68
2021/03/15 08:14:25;;;;;;;0.40;0.40;;;23.50;42.90;;;;;;5031412;28;20056;-64
2021/03/15 08:16:56;;;;;;;0.52;0.43;;;23.60;42.70;;;;;;5028522;28;20487;-68
2021/03/15 08:19:23;;;;;;;0.43;0.43;;;23.60;42.60;;;;;;5029285;28;20040;-68
2021/03/15 08:21:49;;;;;;;1.30;0.55;;;23.60;42.60;;;;;;5034722;28;20077;-67
2021/03/15 08:24:16;;;;;;;0.95;0.50;;;23.60;42.70;;;;;;5029022;28;20436;-68
2021/03/15 08:26:46;;;;;;;0.40;0.40;;;23.60;42.70;;;;;;5028627;28;20527;-68
2021/03/15 08:29:12;;;;;;;;;;;23.60;42.70;;;;;;5034755;28;20026;-69
2021/03/15 08:31:48;;;;;;;1.08;0.60;;;23.60;42.80;;;;;;5029668;28;19924;-72
2021/03/15 08:34:15;;;;;;;0.52;0.50;;;23.70;42.60;;;;;;5045697;28;20101;-67
2021/03/15 08:36:45;;;;;;;1.00;0.50;;;23.70;42.40;;;;;;5025591;28;20022;-71
2021/03/15 08:39:30;;;;;;;0.57;0.40;;;23.70;42.40;;;;;;5028104;28;20033;-67
2021/03/15 08:42:14;;;;;;;1.17;0.50;;;23.70;42.50;;;;;;5027127;28;20095;-68
2021/03/15 08:44:40;;;;;;;0.75;0.50;;;23.70;42.50;;;;;;5028495;28;20024;-66
2021/03/15 08:47:06;;;;;;;0.40;0.40;;;23.70;42.60;;;;;;5029761;28;20543;-68
2021/03/15 08:49:34;;;;;;;0.45;0.35;;;23.70;42.60;;;;;;5030567;28;20116;-72
2021/03/15 08:52:00;;;;;;;0.40;0.40;;;23.70;42.50;;;;;;5031245;28;20554;-66
2021/03/15 08:54:43;;;;;;;0.35;0.35;;;23.70;42.30;;;;;;5044296;28;20045;-68
2021/03/15 08:57:29;;;;;;;0.47;0.45;;;23.70;42.30;;;;;;5027209;28;20421;-62
2021/03/15 08:59:55;;;;;;;0.70;0.40;;;23.70;42.40;;;;;;5023083;28;20040;-67
2021/03/15 09:02:37;;;;;;;1.38;0.55;;;23.70;42.40;;;;;;5028969;28;20038;-73
2021/03/15 09:05:23;;;;;;;0.73;0.60;;;23.70;42.50;;;;;;5031188;28;20028;-70
2021/03/15 09:07:50;;;;;;;1.17;0.43;;;23.70;42.50;;;;;;5043313;28;20166;-67
2021/03/15 09:10:30;;;;;;;1.17;0.47;;;23.70;42.30;;;;;;5030212;28;20025;-71
2021/03/15 09:13:17;;;;;;;1.63;0.30;;;23.70;42.50;;;;;;5028093;28;20025;-67
2021/03/15 09:15:52;;;;;;;0.35;0.32;;;23.70;42.50;;;;;;5027103;28;20033;-66
2021/03/15 09:18:41;;;;;;;0.35;0.30;;;23.70;42.80;;;;;;5031100;28;20104;-72
2021/03/15 09:21:26;;;;;;;;;;;23.70;42.60;;;;;;5027009;28;20518;-65
2021/03/15 09:23:55;;;;;;;0.43;0.30;;;23.70;42.70;;;;;;5027880;28;20513;-69
2021/03/15 09:26:24;;;;;;;0.30;0.30;;;23.70;42.80;;;;;;5029706;28;20045;-71
2021/03/15 09:28:52;;;;;;;1.03;0.30;;;23.70;42.70;;;;;;5025391;28;20365;-69
2021/03/15 09:31:19;;;;;;;0.50;0.50;;;23.70;42.60;;;;;;5025419;28;20208;-68
2021/03/15 09:33:44;;;;;;;0.60;0.40;;;23.70;42.60;;;;;;5029492;28;20018;-71
2021/03/15 09:36:10;;;;;;;0.55;0.40;;;23.80;42.70;;;;;;5029059;28;20033;-71
2021/03/15 09:38:38;;;;;;;0.60;0.40;;;23.70;42.60;;;;;;5030027;28;20021;-73
2021/03/15 09:41:08;;;;;;;0.90;0.47;;;23.70;42.60;;;;;;5026990;28;20036;-69
2021/03/15 09:43:34;;;;;;;0.95;0.40;;;23.70;42.70;;;;;;5030429;28;20026;-67
2021/03/15 09:46:02;;;;;;;0.40;0.40;;;23.70;42.60;;;;;;5027888;28;20025;-66
2021/03/15 09:48:29;;;;;;;0.90;0.50;;;23.70;42.60;;;;;;5028394;28;20040;-69
2021/03/15 09:50:58;;;;;;;0.52;0.40;;;23.70;42.50;;;;;;5027824;28;20188;-68
2021/03/15 09:53:24;;;;;;;0.60;0.40;;;23.70;42.70;;;;;;5035372;28;20024;-66
2021/03/15 09:56:00;;;;;;;0.43;0.43;;;23.70;42.80;;;;;;5025741;28;20109;-68
2021/03/15 09:58:26;;;;;;;0.73;0.50;;;23.70;42.80;;;;;;5033693;28;20255;-71
2021/03/15 10:00:54;;;;;;;0.30;0.30;;;23.70;42.80;;;;;;5023456;28;20042;-72
2021/03/15 10:03:21;;;;;;;0.73;0.50;;;23.70;42.90;;;;;;5032093;28;20664;-68
2021/03/15 10:05:48;;;;;;;0.40;0.40;;;23.70;42.80;;;;;;5025470;28;20087;-70
2021/03/15 10:08:14;;;;;;;0.95;0.40;;;23.70;42.80;;;;;;5031050;28;20044;-69
2021/03/15 10:10:39;;;;;;;0.40;0.40;;;23.70;42.90;;;;;;5029982;28;20029;-70
2021/03/15 10:13:07;;;;;;;0.63;0.47;;;23.70;42.90;;;;;;5030119;28;20046;-72
2021/03/15 10:15:32;;;;;;;0.38;0.35;;;23.70;42.90;;;;;;5028261;28;20037;-69
2021/03/15 10:17:59;;;;;;;0.43;0.40;;;23.70;42.90;;;;;;5029220;28;20120;-67
2021/03/15 10:20:27;;;;;;;0.55;0.50;;;23.70;42.90;;;;;;5028599;28;20476;-61
2021/03/15 10:22:53;;;;;;;0.45;0.45;;;23.70;42.80;;;;;;5028448;28;20104;-65
2021/03/15 10:25:19;;;;;;;0.57;0.40;;;23.70;42.90;;;;;;5026538;28;20041;-67
2021/03/15 10:27:57;;;;;;;0.73;0.40;;;23.70;42.90;;;;;;5021306;28;20043;-64
2021/03/15 10:30:33;;;;;;;0.40;0.40;;;23.70;42.80;;;;;;5023737;28;20026;-65
2021/03/15 10:33:00;;;;;;;0.52;0.40;;;23.70;42.70;;;;;;5029088;28;20040;-65
2021/03/15 10:35:28;;;;;;;0.40;0.40;;;23.70;42.80;;;;;;5024745;28;20096;-66
2021/03/15 10:37:56;;;;;;;0.68;0.50;;;23.70;42.80;;;;;;5027574;28;20075;-64
2021/03/15 10:40:23;;;;;;;0.45;0.40;;;23.70;42.80;;;;;;5027544;28;20022;-65
2021/03/15 10:42:49;;;;;;;0.50;0.40;;;23.70;42.80;;;;;;5034955;28;20061;-67
2021/03/15 10:45:16;;;;;;;0.60;0.40;;;23.70;42.80;;;;;;5028086;28;20028;-64
2021/03/15 10:47:42;;;;;;;1.08;0.77;;;23.70;42.80;;;;;;5025657;28;20052;-65
2021/03/15 10:50:47;;;;;;;0.63;0.40;;;23.70;42.80;;;;;;5026102;28;20108;-66
2021/03/15 10:53:18;;;;;;;0.40;0.40;;;23.70;42.80;;;;;;5025656;28;20084;-66
2021/03/15 10:55:45;;;;;;;0.85;0.50;;;23.70;42.80;;;;;;5026911;28;20033;-66
2021/03/15 10:58:14;;;;;;;0.45;0.40;;;23.70;42.80;;;;;;5025254;28;20105;-66
2021/03/15 11:00:47;;;;;;;0.60;0.50;;;23.70;42.80;;;;;;5028289;28;20098;-69
2021/03/15 11:03:25;;;;;;;0.63;0.30;;;23.70;42.80;;;;;;5030457;28;20040;-67
2021/03/15 11:06:07;;;;;;;0.65;0.40;;;23.70;42.80;;;;;;5027319;28;20030;-66
2021/03/15 11:08:36;;;;;;;0.50;0.50;;;23.60;43.00;;;;;;5027662;28;20492;-63
2021/03/15 11:11:12;;;;;;;;;;;23.60;43.00;;;;;;5026127;28;20554;-63
2021/03/15 11:13:42;;;;;;;0.50;0.50;;;23.70;43.20;;;;;;5027973;28;20007;-70
2021/03/15 11:16:28;;;;;;;0.60;0.50;;;23.70;43.00;;;;;;5025158;28;20025;-67
2021/03/15 11:19:05;;;;;;;0.32;0.32;;;23.70;43.00;;;;;;5026664;28;20021;-63
2021/03/15 11:21:42;;;;;;;0.40;0.40;;;23.60;43.10;;;;;;5024735;28;20036;-74
2021/03/15 11:24:09;;;;;;;0.80;0.60;;;23.60;43.10;;;;;;5024806;28;20041;-64
2021/03/15 11:26:49;;;;;;;0.57;0.47;;;23.70;43.20;;;;;;5025047;28;20128;-61
2021/03/15 11:29:33;;;;;;;0.60;0.50;;;23.70;43.20;;;;;;5026353;28;20041;-61
2021/03/15 11:31:58;;;;;;;0.68;0.57;;;23.70;43.20;;;;;;5024586;28;20040;-64
2021/03/15 11:34:25;;;;;;;0.50;0.40;;;23.60;43.30;;;;;;5024292;28;20025;-66
2021/03/15 11:36:52;;;;;;;0.38;0.38;;;23.70;43.10;;;;;;5018287;28;20032;-62
2021/03/15 11:39:18;;;;;;;0.95;0.40;;;23.70;43.10;;;;;;5024829;28;20048;-65
2021/03/15 11:41:45;;;;;;;0.52;0.50;;;23.70;43.10;;;;;;5026279;28;20065;-62
2021/03/15 11:44:11;;;;;;;0.70;0.40;;;23.70;43.20;;;;;;5030527;28;20032;-64
2021/03/15 11:46:38;;;;;;;0.77;0.40;;;23.60;43.00;;;;;;5028460;28;20034;-67
2021/03/15 11:49:04;;;;;;;1.27;0.40;;;23.60;43.30;;;;;;5056576;28;20117;-66
2021/03/15 11:51:30;;;;;;;0.63;0.45;;;23.60;43.20;;;;;;5026509;28;20101;-68
2021/03/15 11:53:55;;;;;;;0.73;0.40;;;23.60;43.70;;;;;;5029441;28;20025;-63
2021/03/15 11:56:21;;;;;;;1.27;0.50;;;23.60;43.10;;;;;;5029396;28;20480;-66
2021/03/15 11:58:47;;;;;;;0.43;0.43;;;23.60;43.30;;;;;;5031355;28;20025;-64
2021/03/15 12:01:13;;;;;;;0.60;0.50;;;23.70;43.30;;;;;;5025853;28;20033;-65
2021/03/15 12:03:38;;;;;;;0.40;0.40;;;23.60;43.30;;;;;;5028355;28;20030;-64
2021/03/15 12:06:05;;;;;;;0.55;0.40;;;23.60;43.20;;;;;;5031558;28;20104;-65
2021/03/15 12:08:31;;;;;;;0.52;0.47;;;23.60;43.10;;;;;;5031165;28;20034;-64
2021/03/15 12:10:57;;;;;;;0.73;0.50;;;23.60;43.00;;;;;;5030887;28;20048;-64
2021/03/15 12:13:23;;;;;;;0.57;0.40;;;23.60;43.00;;;;;;5031338;28;20098;-65
2021/03/15 12:15:50;;;;;;;0.40;0.40;;;23.60;43.00;;;;;;5027935;28;20017;-64
2021/03/15 12:18:24;;;;;;;0.60;0.50;;;23.60;43.00;;;;;;5032503;28;20061;-64
2021/03/15 12:20:50;;;;;;;0.98;0.50;;;23.60;43.00;;;;;;5031379;28;20029;-64
2021/03/15 12:23:15;;;;;;;0.45;0.45;;;23.60;43.00;;;;;;5029251;28;20112;-65
2021/03/15 12:25:41;;;;;;;0.73;0.47;;;23.60;43.00;;;;;;5026548;28;20037;-64
2021/03/15 12:28:09;;;;;;;0.40;0.30;;;23.50;42.90;;;;;;5030448;28;20037;-65
2021/03/15 12:30:36;;;;;;;0.88;0.57;;;23.50;43.00;;;;;;5044550;28;20026;-65
2021/03/15 12:33:02;;;;;;;0.50;0.50;;;23.50;43.00;;;;;;5029714;28;20368;-62
2021/03/15 12:35:28;;;;;;;1.08;0.50;;;23.50;43.00;;;;;;5029802;28;20091;-63
2021/03/15 12:37:54;;;;;;;0.77;0.55;;;23.50;43.00;;;;;;5031282;28;20025;-64
2021/03/15 12:40:21;;;;;;;1.27;0.70;;;23.50;43.00;;;;;;5031147;28;20055;-63
2021/03/15 12:42:46;;;;;;;0.75;0.40;;;23.50;43.00;;;;;;5032634;28;20352;-64
2021/03/15 12:45:13;;;;;;;0.60;0.50;;;23.60;43.10;;;;;;5030194;28;20034;-63
2021/03/15 12:47:38;;;;;;;0.50;0.50;;;23.50;43.10;;;;;;5028798;28;20109;-62
2021/03/15 12:50:13;;;;;;;0.45;0.45;;;23.50;43.20;;;;;;5029784;28;20509;-63
2021/03/15 12:52:38;;;;;;;0.60;0.40;;;23.60;43.20;;;;;;5045310;28;20032;-63
2021/03/15 12:55:05;;;;;;;0.90;0.50;;;23.50;43.20;;;;;;5027980;28;20021;-64
2021/03/15 12:57:30;;;;;;;0.50;0.50;;;23.60;43.30;;;;;;5030751;28;20029;-64
2021/03/15 12:59:56;;;;;;;0.75;0.50;;;23.50;43.80;;;;;;5027729;28;20590;-65
2021/03/15 13:02:22;;;;;;;1.45;0.60;;;23.50;43.80;;;;;;5027403;28;20184;-63